Time;durP1;ratioP1;P1;durP2;ratioP2;P2;SDS_P1;SDS_P2;PMS_P1;PMS_P2;Temp;Humidity;BMP_temperature;BMP_pressure;BME280_temperature;BME280_humidity;BME280_pressure;Samples;Min_cycle;Max_cycle;Signal;HPM_P1;HPM_P2
2023/02/01 00:02:04;;;;;;;3.23;2.23;;;;;;;3.77;100.00;96889.88;5037729;28;20208;-68
2023/02/01 00:04:32;;;;;;;4.83;3.00;;;;;;;3.81;100.00;96873.03;5036930;28;20212;-69
2023/02/01 00:06:58;;;;;;;5.70;2.57;;;;;;;3.78;100.00;96872.44;5038072;28;20690;-69
2023/02/01 00:09:25;;;;;;;6.50;3.30;;;;;;;3.72;100.00;96871.16;5037691;28;20798;-69
2023/02/01 00:11:51;;;;;;;7.30;3.80;;;;;;;3.80;100.00;96868.75;5037789;28;20212;-70
2023/02/01 00:14:18;;;;;;;6.20;2.53;;;;;;;3.71;100.00;96864.28;5037352;28;20224;-69
2023/02/01 00:16:44;;;;;;;7.53;3.10;;;;;;;3.76;100.00;96862.13;5037924;28;20215;-69
2023/02/01 00:19:14;;;;;;;10.83;4.80;;;;;;;3.79;100.00;96861.91;5037462;28;20238;-70
2023/02/01 00:21:43;;;;;;;6.83;2.90;;;;;;;3.85;100.00;96856.19;5037622;28;20215;-69
2023/02/01 00:24:11;;;;;;;10.57;3.27;;;;;;;3.79;100.00;96850.63;5037749;28;20584;-70
2023/02/01 00:26:39;;;;;;;7.97;3.67;;;;;;;3.86;100.00;96860.47;5037546;28;20219;-69
2023/02/01 00:29:09;;;;;;;7.03;3.63;;;;;;;3.87;100.00;96854.31;5037081;28;20207;-69
2023/02/01 00:31:36;;;;;;;6.30;2.83;;;;;;;3.80;100.00;96854.91;5037335;28;20212;-70
2023/02/01 00:34:02;;;;;;;7.77;3.97;;;;;;;3.86;100.00;96854.44;5037143;28;20231;-69
2023/02/01 00:36:29;;;;;;;9.13;3.27;;;;;;;3.83;100.00;96857.25;5037523;28;20220;-69
2023/02/01 00:38:57;;;;;;;6.53;3.40;;;;;;;3.90;100.00;96840.22;5037579;28;20212;-70
2023/02/01 00:41:24;;;;;;;7.70;3.53;;;;;;;3.83;100.00;96844.22;5037574;28;20224;-69
2023/02/01 00:43:51;;;;;;;5.17;2.93;;;;;;;3.85;100.00;96832.75;5036904;28;20208;-70
2023/02/01 00:46:19;;;;;;;7.93;3.67;;;;;;;3.89;100.00;96838.53;5037281;28;20204;-69
2023/02/01 00:48:46;;;;;;;11.07;3.00;;;;;;;3.78;100.00;96843.78;5037653;28;20216;-70
2023/02/01 00:51:14;;;;;;;8.07;3.53;;;;;;;3.83;100.00;96839.03;5036457;28;20246;-70
2023/02/01 00:53:41;;;;;;;8.73;3.50;;;;;;;3.79;100.00;96840.22;5036563;28;20207;-69
2023/02/01 00:56:10;;;;;;;4.43;2.67;;;;;;;3.85;100.00;96830.13;5037479;28;20227;-70
2023/02/01 00:58:37;;;;;;;4.83;2.50;;;;;;;3.77;100.00;96834.31;5037188;28;20215;-69
2023/02/01 01:01:06;;;;;;;3.13;2.30;;;;;;;3.78;100.00;96831.59;5036517;28;20229;-70
2023/02/01 01:03:34;;;;;;;3.50;2.10;;;;;;;3.75;100.00;96834.41;5036659;28;20211;-69
2023/02/01 01:06:01;;;;;;;7.83;3.70;;;;;;;3.67;100.00;96828.16;5037113;28;20206;-70
2023/02/01 01:08:28;;;;;;;7.70;2.87;;;;;;;3.76;100.00;96833.47;5036496;28;20210;-70
2023/02/01 01:10:54;;;;;;;3.33;2.10;;;;;;;3.78;100.00;96834.19;5036851;28;20259;-70
2023/02/01 01:13:22;;;;;;;8.93;3.30;;;;;;;3.82;100.00;96840.00;5037238;28;20213;-70
2023/02/01 01:15:49;;;;;;;5.73;3.17;;;;;;;3.88;100.00;96834.28;5035834;28;20246;-69
2023/02/01 01:18:15;;;;;;;3.17;2.10;;;;;;;3.84;100.00;96833.69;5036673;28;20208;-70
2023/02/01 01:20:42;;;;;;;9.30;3.87;;;;;;;3.86;100.00;96831.78;5037126;28;20236;-70
2023/02/01 01:23:09;;;;;;;5.83;2.87;;;;;;;3.72;100.00;96829.44;5035980;28;20209;-69
2023/02/01 01:25:38;;;;;;;5.57;2.80;;;;;;;3.72;100.00;96826.03;5036069;28;20230;-70
2023/02/01 01:28:05;;;;;;;7.70;3.07;;;;;;;3.81;100.00;96822.69;5036729;28;20298;-69
2023/02/01 01:30:34;;;;;;;9.90;3.60;;;;;;;3.93;100.00;96806.06;5036485;28;20747;-70
2023/02/01 01:33:00;;;;;;;6.27;2.67;;;;;;;3.68;100.00;96807.19;5036402;28;20208;-69
2023/02/01 01:35:27;;;;;;;6.37;2.83;;;;;;;3.66;100.00;96801.25;5036666;28;20228;-69
2023/02/01 01:37:53;;;;;;;8.07;2.43;;;;;;;3.74;100.00;96804.09;5036646;28;20208;-70
2023/02/01 01:40:19;;;;;;;5.67;2.57;;;;;;;3.71;100.00;96801.72;5036237;28;20234;-70
2023/02/01 01:42:46;;;;;;;6.37;2.87;;;;;;;3.71;100.00;96793.91;5036797;28;20209;-70
2023/02/01 01:45:23;;;;;;;6.37;2.93;;;;;;;3.79;100.00;96801.97;5035870;28;20582;-69
2023/02/01 01:47:54;;;;;;;6.40;2.67;;;;;;;3.68;100.00;96795.94;5037001;28;20680;-69
2023/02/01 01:50:25;;;;;;;4.33;2.60;;;;;;;3.73;100.00;96796.41;5036583;28;20313;-70
2023/02/01 01:52:54;;;;;;;9.33;3.73;;;;;;;3.73;100.00;96794.63;5036791;28;20212;-69
2023/02/01 01:55:23;;;;;;;12.77;2.80;;;;;;;3.64;100.00;96791.94;5035627;28;20232;-69
2023/02/01 01:57:56;;;;;;;7.03;3.47;;;;;;;3.76;100.00;96799.59;5036278;28;20216;-69
2023/02/01 02:00:23;;;;;;;7.10;2.80;;;;;;;3.63;100.00;96791.09;5036081;28;20227;-70
2023/02/01 02:02:55;;;;;;;5.77;2.53;;;;;;;3.72;100.00;96792.16;5037422;28;20211;-70
2023/02/01 02:05:22;;;;;;;6.47;2.83;;;;;;;3.50;100.00;96788.75;5039381;28;20204;-70
2023/02/01 02:07:51;;;;;;;5.00;2.83;;;;;;;3.53;100.00;96791.94;5040538;28;20200;-69
2023/02/01 02:10:18;;;;;;;6.27;2.33;;;;;;;3.72;100.00;96792.16;5040280;28;20231;-70
2023/02/01 02:12:48;;;;;;;8.63;3.63;;;;;;;3.66;100.00;96795.22;5039764;28;20213;-70
2023/02/01 02:15:16;;;;;;;5.47;2.70;;;;;;;3.66;100.00;96790.84;5039337;28;20294;-70
2023/02/01 02:17:56;;;;;;;8.33;2.40;;;;;;;3.74;100.00;96796.28;5040403;28;20215;-70
2023/02/01 02:20:46;;;;;;;4.57;2.23;;;;;;;3.74;100.00;96795.44;5040150;28;20246;-70
2023/02/01 02:24:00;;;;;;;5.20;2.93;;;;;;;3.67;100.00;96794.28;5039958;28;20222;-70
2023/02/01 02:27:24;;;;;;;3.47;2.63;;;;;;;3.85;100.00;96782.41;5040421;28;20207;-69
2023/02/01 02:30:18;;;;;;;6.17;2.80;;;;;;;3.83;100.00;96790.34;4973705;28;20239;-69
2023/02/01 02:33:29;;;;;;;7.43;3.17;;;;;;;3.83;100.00;96779.06;5039955;28;20216;-70
2023/02/01 02:36:01;;;;;;;9.27;3.30;;;;;;;3.83;100.00;96787.75;5019121;28;20303;-70
2023/02/01 02:38:34;;;;;;;6.63;2.57;;;;;;;3.84;100.00;96791.97;5040196;28;20201;-69
2023/02/01 02:41:11;;;;;;;7.17;2.93;;;;;;;3.88;100.00;96787.34;5040224;28;20231;-70
2023/02/01 02:49:29;;;;;;;4.47;2.57;;;;;;;3.76;100.00;96768.31;5040170;28;20631;-70
2023/02/01 02:54:48;;;;;;;5.73;3.20;;;;;;;3.75;100.00;96771.84;5038262;28;20355;-70
2023/02/01 03:05:41;;;;;;;5.50;3.20;;;;;;;3.73;100.00;96762.53;5037663;28;20210;-69
2023/02/01 03:08:12;;;;;;;6.87;3.23;;;;;;;3.79;100.00;96762.88;5038228;28;20214;-70
2023/02/01 03:10:58;;;;;;;9.30;2.83;;;;;;;3.83;100.00;96764.28;5038069;28;20232;-70
2023/02/01 03:13:35;;;;;;;9.53;3.40;;;;;;;3.72;100.00;96761.69;5037302;28;20845;-70
2023/02/01 03:16:08;;;;;;;6.40;3.23;;;;;;;3.72;100.00;96733.03;5037717;28;20235;-70
2023/02/01 03:18:43;;;;;;;13.57;3.67;;;;;;;3.84;100.00;96739.84;5037751;28;20207;-70
2023/02/01 03:21:17;;;;;;;7.87;3.30;;;;;;;3.82;100.00;96751.38;5037618;28;20287;-70
2023/02/01 03:23:45;;;;;;;6.60;3.30;;;;;;;3.71;100.00;96747.00;5037186;28;20799;-70
2023/02/01 03:26:15;;;;;;;6.43;2.53;;;;;;;3.76;100.00;96747.47;5037370;28;20211;-70
2023/02/01 03:28:45;;;;;;;7.97;3.47;;;;;;;3.77;100.00;96749.13;5037721;28;20298;-70
2023/02/01 03:31:13;;;;;;;4.90;3.50;;;;;;;3.71;100.00;96752.22;5037930;28;20237;-70
2023/02/01 03:33:41;;;;;;;9.40;3.33;;;;;;;3.79;100.00;96749.00;5036952;28;20211;-70
2023/02/01 03:36:19;;;;;;;6.53;2.97;;;;;;;3.81;100.00;96752.31;5037561;28;20231;-70
2023/02/01 03:38:53;;;;;;;7.83;3.53;;;;;;;3.84;100.00;96758.09;5037707;28;20208;-70
2023/02/01 03:41:25;;;;;;;9.10;3.80;;;;;;;3.84;100.00;96758.09;5037583;28;20212;-70
2023/02/01 03:43:56;;;;;;;5.47;2.07;;;;;;;3.86;100.00;96758.00;5036639;28;20236;-71
2023/02/01 03:46:32;;;;;;;3.43;1.53;;;;;;;3.82;100.00;96754.78;5037817;28;20215;-70
2023/02/01 03:49:03;;;;;;;10.60;3.87;;;;;;;3.82;100.00;96754.78;5037221;28;20207;-70
2023/02/01 03:51:32;;;;;;;6.57;2.93;;;;;;;3.87;100.00;96768.28;5036930;28;20240;-70
2023/02/01 03:54:00;;;;;;;5.07;2.13;;;;;;;3.84;100.00;96762.50;5035300;28;20209;-70
2023/02/01 03:56:29;;;;;;;6.10;2.83;;;;;;;3.85;100.00;96761.53;5001303;28;1067554;-70
2023/02/01 03:59:01;;;;;;;11.33;2.23;;;;;;;3.72;100.00;96759.09;5039150;28;20204;-70
2023/02/01 04:01:29;;;;;;;8.40;3.90;;;;;;;3.88;100.00;96756.91;5039077;28;20213;-71
2023/02/01 04:03:56;;;;;;;6.13;3.40;;;;;;;3.75;100.00;96751.00;5037786;28;20213;-69
2023/02/01 04:06:23;;;;;;;8.03;3.90;;;;;;;3.74;100.00;96759.81;5037797;28;20229;-70
2023/02/01 04:08:50;;;;;;;5.60;2.60;;;;;;;3.81;100.00;96770.56;5038339;28;20337;-69
2023/02/01 04:11:18;;;;;;;2.30;2.07;;;;;;;3.77;100.00;96764.75;5038216;28;20220;-70
2023/02/01 04:13:45;;;;;;;5.80;2.20;;;;;;;3.74;100.00;96759.81;5037340;28;20691;-69
2023/02/01 04:16:11;;;;;;;7.27;3.20;;;;;;;3.66;100.00;96762.16;5038119;28;20231;-70
2023/02/01 04:18:38;;;;;;;7.57;3.93;;;;;;;3.62;100.00;96765.16;5037439;28;20645;-70
2023/02/01 04:21:05;;;;;;;8.43;3.10;;;;;;;3.69;100.00;96761.94;5038169;28;20235;-70
2023/02/01 04:23:32;;;;;;;17.80;4.07;;;;;;;3.60;100.00;96756.63;5037748;28;20215;-70
2023/02/01 04:26:05;;;;;;;7.13;3.60;;;;;;;3.66;100.00;96746.53;5036816;28;20207;-70
2023/02/01 04:28:32;;;;;;;6.20;3.47;;;;;;;3.55;100.00;96753.56;5037623;28;20246;-70
2023/02/01 04:30:58;;;;;;;5.50;2.93;;;;;;;3.56;100.00;96747.41;5037840;28;20224;-70
2023/02/01 04:33:25;;;;;;;3.53;2.20;;;;;;;3.53;100.00;96736.41;5037551;28;20668;-70
2023/02/01 04:35:51;;;;;;;6.23;3.27;;;;;;;3.60;100.00;96733.19;5037379;28;20231;-71
2023/02/01 04:38:18;;;;;;;6.33;3.07;;;;;;;3.56;100.00;96730.97;5037793;28;20230;-68
2023/02/01 04:40:48;;;;;;;7.87;3.60;;;;;;;3.72;100.00;96738.25;5037758;28;21206;-70
2023/02/01 04:43:16;;;;;;;6.43;3.00;;;;;;;3.61;100.00;96734.84;5037751;28;20215;-69
2023/02/01 04:45:42;;;;;;;8.60;4.13;;;;;;;3.62;100.00;96743.50;5036677;28;20206;-69
2023/02/01 04:48:09;;;;;;;21.90;6.27;;;;;;;3.70;100.00;96745.38;5037347;28;20236;-69
2023/02/01 04:50:35;;;;;;;6.23;3.27;;;;;;;3.62;100.00;96743.50;5037872;28;20235;-69
2023/02/01 04:53:02;;;;;;;6.37;3.07;;;;;;;3.63;100.00;96746.78;5036935;28;20209;-69
2023/02/01 04:55:28;;;;;;;5.57;2.17;;;;;;;3.61;100.00;96747.88;5036460;28;20228;-69
2023/02/01 04:57:56;;;;;;;3.07;1.90;;;;;;;3.57;100.00;96745.66;5037327;28;20879;-68
2023/02/01 05:00:24;;;;;;;6.67;3.00;;;;;;;3.72;100.00;96740.84;5036695;28;20218;-72
2023/02/01 05:02:51;;;;;;;3.73;2.23;;;;;;;3.74;100.00;96732.91;5037072;28;20641;-70
2023/02/01 05:05:17;;;;;;;6.50;2.83;;;;;;;3.83;100.00;96743.44;5036911;28;20214;-70
2023/02/01 05:07:44;;;;;;;5.33;2.43;;;;;;;3.79;100.00;96734.19;5036776;28;20218;-70
2023/02/01 05:10:11;;;;;;;10.43;2.60;;;;;;;3.83;100.00;96739.97;5036603;28;20226;-71
2023/02/01 05:15:22;;;;;;;5.77;2.80;;;;;;;3.88;100.00;96740.44;5036384;28;20231;-72
2023/02/01 05:17:49;;;;;;;2.23;1.63;;;;;;;3.89;100.00;96732.47;5036823;28;20204;-72
2023/02/01 05:20:16;;;;;;;5.77;2.13;;;;;;;3.88;100.00;96715.22;5036581;28;20232;-69
2023/02/01 05:22:43;;;;;;;6.03;2.67;;;;;;;3.87;100.00;96712.69;5036971;28;20665;-70
2023/02/01 05:25:10;;;;;;;5.70;2.80;;;;;;;3.89;100.00;96701.19;5036056;28;20208;-72
2023/02/01 05:27:37;;;;;;;4.10;2.10;;;;;;;3.79;100.00;96712.50;5036970;28;20212;-72
2023/02/01 05:30:04;;;;;;;4.37;1.90;;;;;;;3.87;100.00;96697.91;5036915;28;20238;-70
2023/02/01 05:32:31;;;;;;;4.13;2.20;;;;;;;3.85;100.00;96704.19;5036801;28;20203;-71
2023/02/01 05:34:59;;;;;;;4.20;2.13;;;;;;;4.04;100.00;96725.22;5036417;28;20197;-71
2023/02/01 05:37:25;;;;;;;4.20;2.17;;;;;;;3.98;100.00;96718.69;5036237;28;20232;-68
2023/02/01 05:39:52;;;;;;;1.63;1.17;;;;;;;3.96;100.00;96712.78;5036195;28;20323;-69
2023/02/01 05:42:19;;;;;;;3.60;1.97;;;;;;;3.90;100.00;96704.66;5035952;28;20209;-69
2023/02/01 05:44:45;;;;;;;3.53;2.03;;;;;;;3.83;100.00;96712.16;5035454;28;20381;-69
2023/02/01 05:47:12;;;;;;;3.27;1.53;;;;;;;4.03;100.00;96708.72;5035962;28;20208;-71
2023/02/01 05:49:38;;;;;;;5.33;2.87;;;;;;;3.92;100.00;96719.22;5036058;28;20497;-69
2023/02/01 05:52:06;;;;;;;3.57;2.10;;;;;;;4.03;100.00;96706.09;5035415;28;20657;-70
2023/02/01 05:54:33;;;;;;;6.70;1.73;;;;;;;3.90;100.00;96713.28;5034774;28;20205;-70
2023/02/01 05:56:59;;;;;;;3.73;1.93;;;;;;;3.90;100.00;96713.28;5036458;28;20225;-69
2023/02/01 05:59:26;;;;;;;4.93;2.77;;;;;;;3.91;100.00;96714.94;5035633;28;20223;-69
2023/02/01 06:01:52;;;;;;;3.83;1.97;;;;;;;4.01;100.00;96715.00;5035881;28;20430;-72
2023/02/01 06:04:19;;;;;;;4.63;2.20;;;;;;;4.02;100.00;96722.72;5034716;28;20197;-69
2023/02/01 06:06:45;;;;;;;2.83;1.40;;;;;;;3.88;100.00;96699.56;5035484;28;20204;-69
2023/02/01 06:09:13;;;;;;;12.67;1.13;;;;;;;3.96;100.00;96699.75;5035288;28;20207;-72
2023/02/01 06:11:41;;;;;;;2.83;1.63;;;;;;;4.00;100.00;96688.13;5035640;28;20207;-70
2023/02/01 06:14:07;;;;;;;7.17;2.73;;;;;;;3.99;100.00;96676.03;5034632;28;20207;-71
2023/02/01 06:16:34;;;;;;;3.37;2.03;;;;;;;4.04;100.00;96679.09;5035273;28;20220;-71
2023/02/01 06:19:00;;;;;;;2.23;1.47;;;;;;;4.04;100.00;96683.50;5036261;28;20208;-71
2023/02/01 06:21:27;;;;;;;3.60;2.20;;;;;;;4.07;100.00;96689.25;5035535;28;20212;-69
2023/02/01 06:23:55;;;;;;;3.20;1.43;;;;;;;4.07;100.00;96696.25;5035046;28;20708;-70
2023/02/01 06:26:23;;;;;;;4.03;2.60;;;;;;;4.14;100.00;96700.00;5036234;28;20299;-69
2023/02/01 06:28:49;;;;;;;2.53;1.60;;;;;;;4.00;100.00;96703.75;5037486;28;20201;-69
2023/02/01 06:31:16;;;;;;;4.87;2.43;;;;;;;4.14;100.00;96695.63;5035751;28;20231;-69
2023/02/01 06:33:42;;;;;;;5.33;2.77;;;;;;;4.10;100.00;96709.88;5035279;28;20200;-70
2023/02/01 06:36:11;;;;;;;3.73;1.67;;;;;;;4.21;100.00;96709.00;5035641;28;20727;-68
2023/02/01 06:38:38;;;;;;;5.73;2.37;;;;;;;4.09;100.00;96708.22;5036528;28;20236;-70
2023/02/01 06:41:05;;;;;;;5.00;2.27;;;;;;;4.13;100.00;96708.81;5035459;28;21057;-70
2023/02/01 06:43:34;;;;;;;1.83;1.63;;;;;;;4.14;100.00;96708.69;5036281;28;20212;-69
2023/02/01 06:46:02;;;;;;;3.10;2.10;;;;;;;4.15;100.00;96704.28;5036232;28;20211;-70
2023/02/01 06:48:28;;;;;;;7.57;2.73;;;;;;;4.18;100.00;96707.47;5036611;28;20237;-69
2023/02/01 06:50:54;;;;;;;5.33;2.60;;;;;;;4.13;100.00;96703.59;5039553;28;20722;-69
2023/02/01 06:53:21;;;;;;;3.20;2.00;;;;;;;4.11;100.00;96721.13;5040002;28;20242;-70
2023/02/01 06:55:55;;;;;;;2.80;1.57;;;;;;;4.14;100.00;96706.06;5038762;28;20212;-71
2023/02/01 06:58:21;;;;;;;7.17;2.33;;;;;;;4.17;100.00;96700.59;5040826;28;20207;-68
2023/02/01 07:00:50;;;;;;;3.53;1.50;;;;;;;4.27;100.00;96704.09;5039041;28;20224;-69
2023/02/01 07:03:17;;;;;;;6.63;2.47;;;;;;;4.11;100.00;96705.47;5039325;28;20204;-69
2023/02/01 07:05:43;;;;;;;3.57;2.07;;;;;;;4.13;100.00;96714.84;5038853;28;21257;-70
2023/02/01 07:08:10;;;;;;;3.40;2.10;;;;;;;4.17;100.00;96723.25;5039294;28;20204;-69
2023/02/01 07:10:36;;;;;;;5.30;2.17;;;;;;;4.26;100.00;96705.88;5039109;28;20728;-69
2023/02/01 07:13:03;;;;;;;6.40;2.50;;;;;;;4.22;100.00;96724.50;5039703;28;20207;-70
2023/02/01 07:15:29;;;;;;;5.50;2.50;;;;;;;4.23;100.00;96705.31;5038717;28;20209;-70
2023/02/01 07:17:57;;;;;;;6.37;2.87;;;;;;;4.42;100.00;96702.81;5038849;28;20231;-69
2023/02/01 07:20:24;;;;;;;4.17;1.80;;;;;;;4.37;100.00;96705.78;5038512;28;20247;-69
2023/02/01 07:22:55;;;;;;;4.10;2.00;;;;;;;4.44;100.00;96699.13;5038673;28;20204;-70
2023/02/01 07:25:22;;;;;;;2.43;1.73;;;;;;;4.32;100.00;96704.53;5036970;28;20208;-69
2023/02/01 07:27:48;;;;;;;3.07;1.70;;;;;;;4.34;100.00;96713.03;5038586;28;20208;-69
2023/02/01 07:30:15;;;;;;;3.20;1.73;;;;;;;4.30;100.00;96719.47;5038652;28;20236;-69
2023/02/01 07:32:41;;;;;;;3.47;1.40;;;;;;;4.27;100.00;96717.94;5038775;28;20214;-69
2023/02/01 07:35:09;;;;;;;3.43;2.07;;;;;;;4.50;100.00;96729.09;5037575;28;20211;-68
2023/02/01 07:37:36;;;;;;;2.80;1.77;;;;;;;4.37;100.00;96731.88;5038799;28;20246;-70
2023/02/01 07:40:03;;;;;;;1.90;1.10;;;;;;;4.37;100.00;96736.28;5038000;28;20228;-69
2023/02/01 07:42:29;;;;;;;5.50;1.93;;;;;;;4.38;100.00;96743.97;5037619;28;20676;-70
2023/02/01 07:44:56;;;;;;;4.47;1.53;;;;;;;4.45;100.00;96731.25;5037460;28;20208;-70
2023/02/01 07:47:22;;;;;;;4.60;1.53;;;;;;;4.55;100.00;96740.78;5038409;28;20645;-69
2023/02/01 07:49:48;;;;;;;1.37;1.27;;;;;;;4.51;100.00;96739.38;5037479;28;20228;-70
2023/02/01 07:52:16;;;;;;;2.23;1.37;;;;;;;4.59;100.00;96749.19;5037799;28;20592;-70
2023/02/01 07:54:43;;;;;;;1.80;1.23;;;;;;;4.54;100.00;96746.13;5037756;28;20216;-70
2023/02/01 07:57:11;;;;;;;2.00;1.43;;;;;;;4.58;100.00;96739.69;5038691;28;20310;-70
2023/02/01 08:01:19;;;;;;;4.03;2.50;;;;;;;4.71;100.00;96753.38;5037052;28;20217;-70
2023/02/01 08:02:24;;;;;;;1.53;1.23;;;;;;;4.60;100.00;96761.28;5037756;28;20213;-70
2023/02/01 08:04:50;;;;;;;3.40;1.33;;;;;;;4.63;100.00;96784.50;5036049;28;20211;-69
2023/02/01 08:07:18;;;;;;;3.37;1.60;;;;;;;4.72;100.00;96779.34;5034747;28;20212;-70
2023/02/01 08:09:45;;;;;;;4.43;1.00;;;;;;;4.67;100.00;96791.97;5036547;28;20232;-70
2023/02/01 08:12:11;;;;;;;3.00;1.97;;;;;;;4.72;100.00;96788.97;5037236;28;20204;-70
2023/02/01 08:14:39;;;;;;;4.10;2.20;;;;;;;4.72;100.00;96791.56;5037454;28;20594;-70
2023/02/01 08:17:06;;;;;;;5.03;2.23;;;;;;;4.58;100.00;96786.69;5037907;28;20310;-69
2023/02/01 08:19:32;;;;;;;3.60;1.37;;;;;;;4.65;100.00;96788.66;5038501;28;20217;-69
2023/02/01 08:22:01;;;;;;;1.67;1.37;;;;;;;4.57;100.00;96777.19;5037667;28;20205;-70
2023/02/01 08:24:29;;;;;;;2.93;1.27;;;;;;;4.70;100.00;96775.19;5035015;28;20209;-70
2023/02/01 08:26:56;;;;;;;5.53;1.87;;;;;;;4.66;100.00;96771.19;5038572;28;20205;-69
2023/02/01 08:29:22;;;;;;;3.93;2.13;;;;;;;4.58;100.00;96758.81;5037641;28;20228;-69
2023/02/01 08:31:50;;;;;;;8.33;2.03;;;;;;;4.55;100.00;96759.06;5037136;28;20215;-71
2023/02/01 08:34:17;;;;;;;3.23;1.70;;;;;;;4.61;100.00;96758.53;5036383;28;20200;-70
2023/02/01 08:36:43;;;;;;;4.60;2.97;;;;;;;4.74;100.00;96758.34;5037139;28;20228;-71
2023/02/01 08:39:11;;;;;;;5.17;2.07;;;;;;;4.69;100.00;96758.72;5036163;28;20202;-70
2023/02/01 08:41:39;;;;;;;2.00;1.40;;;;;;;4.75;100.00;96752.16;5037283;28;20205;-70
2023/02/01 08:44:06;;;;;;;1.37;1.07;;;;;;;4.74;100.00;96747.91;5035794;28;20203;-71
2023/02/01 08:46:33;;;;;;;1.53;1.27;;;;;;;4.67;100.00;96758.03;5035746;28;20212;-71
2023/02/01 08:48:59;;;;;;;3.43;1.70;;;;;;;4.74;100.00;96743.50;5036696;28;20209;-69
2023/02/01 08:51:26;;;;;;;3.07;2.33;;;;;;;4.75;100.00;96760.84;5036611;28;20216;-69
2023/02/01 08:53:52;;;;;;;7.43;2.20;;;;;;;4.91;100.00;96745.50;5033458;28;20231;-71
2023/02/01 08:56:19;;;;;;;6.47;2.30;;;;;;;4.94;99.89;96742.66;5036150;28;20209;-70
2023/02/01 08:58:47;;;;;;;4.60;2.40;;;;;;;5.06;99.63;96747.63;5037393;28;20736;-68
2023/02/01 09:01:16;;;;;;;2.93;1.60;;;;;;;5.05;98.70;96753.00;5035190;28;20233;-69
2023/02/01 09:03:43;;;;;;;5.60;2.23;;;;;;;4.93;99.62;96769.72;5034925;28;20262;-71
2023/02/01 09:06:11;;;;;;;2.90;1.77;;;;;;;5.08;99.35;96779.69;5036393;28;20685;-71
2023/02/01 09:08:39;;;;;;;5.00;1.93;;;;;;;5.05;99.19;96779.97;5037283;28;20662;-69
2023/02/01 09:11:08;;;;;;;2.27;1.83;;;;;;;5.14;99.28;96773.94;5036271;28;20225;-69
2023/02/01 09:13:35;;;;;;;3.53;1.80;;;;;;;5.19;98.40;96776.97;5036267;28;20654;-71
2023/02/01 09:16:03;;;;;;;6.90;3.87;;;;;;;5.24;98.46;96774.78;5036050;28;20216;-69
2023/02/01 09:18:29;;;;;;;2.37;1.53;;;;;;;5.01;98.30;96783.75;5036944;28;20279;-70
2023/02/01 09:20:56;;;;;;;6.83;3.10;;;;;;;5.08;98.61;96792.75;5035763;28;20236;-69
2023/02/01 09:23:22;;;;;;;3.13;1.60;;;;;;;5.00;98.92;96786.50;5035556;28;20850;-69
2023/02/01 09:25:50;;;;;;;4.13;1.80;;;;;;;5.08;99.06;96784.91;5036129;28;20377;-72
2023/02/01 09:28:16;;;;;;;5.47;2.90;;;;;;;5.06;98.83;96778.16;5036042;28;20620;-70
2023/02/01 09:30:43;;;;;;;4.80;2.47;;;;;;;5.10;98.96;96787.38;5035952;28;20929;-69
2023/02/01 09:33:10;;;;;;;6.27;3.17;;;;;;;5.15;98.99;96790.44;5035704;28;20213;-70
2023/02/01 09:35:37;;;;;;;6.33;1.63;;;;;;;4.96;98.85;96791.19;5035106;28;20197;-70
2023/02/01 09:38:04;;;;;;;3.43;1.73;;;;;;;4.89;99.26;96800.47;5035895;28;20217;-70
2023/02/01 09:40:31;;;;;;;3.93;1.80;;;;;;;4.88;99.32;96796.19;5036096;28;20225;-69
2023/02/01 09:43:12;;;;;;;5.03;2.73;;;;;;;5.06;99.27;96801.66;5035090;28;20471;-70
2023/02/01 09:45:48;;;;;;;2.80;1.80;;;;;;;5.10;99.90;96806.47;5034920;28;20208;-68
2023/02/01 09:48:21;;;;;;;3.40;2.03;;;;;;;5.03;99.81;96807.97;5035918;28;20208;-68
2023/02/01 09:50:51;;;;;;;3.67;2.23;;;;;;;5.07;99.39;96798.91;5035591;28;20268;-70
2023/02/01 09:53:25;;;;;;;5.70;2.10;;;;;;;5.06;99.44;96802.47;5035724;28;20209;-69
2023/02/01 09:55:56;;;;;;;6.77;2.27;;;;;;;5.09;99.48;96802.25;5035325;28;20211;-69
2023/02/01 09:58:28;;;;;;;4.73;1.47;;;;;;;5.14;99.06;96792.22;5035198;28;20228;-69
2023/02/01 10:00:57;;;;;;;2.97;1.87;;;;;;;5.09;98.72;96793.56;5034007;28;20228;-69
2023/02/01 10:03:29;;;;;;;3.23;2.03;;;;;;;5.19;98.36;96800.47;5035062;28;20201;-69
2023/02/01 10:06:25;;;;;;;2.87;1.73;;;;;;;5.28;97.62;96797.06;5034374;28;20219;-70
2023/02/01 10:09:20;;;;;;;8.50;2.20;;;;;;;5.39;97.70;96789.16;5034341;28;20212;-71
2023/02/01 10:12:00;;;;;;;6.73;2.50;;;;;;;5.27;98.44;96798.06;5034644;28;20197;-69
2023/02/01 10:14:53;;;;;;;4.67;2.20;;;;;;;5.38;98.23;96797.94;5035333;28;20196;-71
2023/02/01 10:17:32;;;;;;;3.50;1.77;;;;;;;5.22;98.38;96800.22;5036470;28;20255;-69
2023/02/01 10:20:12;;;;;;;3.83;1.87;;;;;;;5.30;98.48;96787.34;5037648;28;20229;-69
2023/02/01 10:22:43;;;;;;;5.37;2.47;;;;;;;5.12;99.22;96781.06;5036594;28;20212;-70
2023/02/01 10:25:17;;;;;;;2.97;2.00;;;;;;;5.09;99.15;96773.50;5038734;28;20271;-69
2023/02/01 10:27:44;;;;;;;6.17;2.30;;;;;;;5.06;99.54;96783.38;5040155;28;20196;-69
2023/02/01 10:30:19;;;;;;;2.70;1.83;;;;;;;5.13;98.95;96794.94;5039201;28;20231;-70
2023/02/01 10:32:47;;;;;;;5.80;3.10;;;;;;;5.15;99.18;96800.88;5038694;28;20207;-70
2023/02/01 10:35:18;;;;;;;6.23;2.93;;;;;;;5.30;99.12;96803.00;5038715;28;20201;-69
2023/02/01 10:37:46;;;;;;;4.13;2.23;;;;;;;5.11;98.57;96791.66;5039013;28;20232;-70
2023/02/01 10:40:24;;;;;;;7.63;3.38;;;;;;;5.20;99.20;96799.53;5038261;28;20450;-70
2023/02/01 10:42:52;;;;;;;2.63;2.13;;;;;;;5.27;98.29;96799.81;5039878;28;20205;-70
2023/02/01 10:45:22;;;;;;;3.70;2.50;;;;;;;5.23;97.89;96814.13;5039024;28;20209;-70
2023/02/01 10:47:50;;;;;;;6.60;2.00;;;;;;;5.02;99.03;96806.31;5039636;28;20208;-69
2023/02/01 10:50:30;;;;;;;2.73;1.80;;;;;;;4.94;99.97;96806.13;5039044;28;20229;-70
2023/02/01 10:53:04;;;;;;;3.27;1.90;;;;;;;5.08;99.32;96805.81;5038286;28;20212;-70
2023/02/01 10:55:35;;;;;;;4.57;2.53;;;;;;;5.07;99.32;96808.56;5038292;28;20217;-71
2023/02/01 10:58:03;;;;;;;7.10;3.43;;;;;;;4.91;99.33;96814.25;5038558;28;20228;-70
2023/02/01 11:00:39;;;;;;;4.37;2.23;;;;;;;4.93;99.71;96811.50;5037105;28;20229;-70
2023/02/01 11:03:22;;;;;;;5.70;2.87;;;;;;;5.01;99.45;96806.44;5038049;28;20204;-70
2023/02/01 11:05:50;;;;;;;5.83;2.97;;;;;;;4.86;100.00;96812.94;5038885;28;20197;-69
2023/02/01 11:08:18;;;;;;;3.77;2.57;;;;;;;4.90;99.51;96828.25;5039659;28;20208;-70
2023/02/01 11:10:45;;;;;;;4.63;2.40;;;;;;;4.64;100.00;96835.75;5039305;28;20221;-69
2023/02/01 11:13:16;;;;;;;3.33;2.27;;;;;;;4.76;99.96;96832.97;5039227;28;20201;-70
2023/02/01 11:15:45;;;;;;;7.03;2.83;;;;;;;4.79;99.99;96850.97;5038712;28;20233;-69
2023/02/01 11:18:18;;;;;;;9.43;3.10;;;;;;;4.82;100.00;96839.47;5038623;28;20308;-70
2023/02/01 11:20:49;;;;;;;5.20;2.47;;;;;;;4.86;99.68;96826.84;5038478;28;21001;-69
2023/02/01 11:23:20;;;;;;;4.23;2.10;;;;;;;4.73;99.77;96824.56;5039495;28;20227;-69
2023/02/01 11:25:53;;;;;;;6.43;2.93;;;;;;;4.87;99.84;96823.28;5038406;28;20212;-69
2023/02/01 11:28:23;;;;;;;4.97;2.53;;;;;;;4.84;99.49;96828.75;5038468;28;20201;-69
2023/02/01 11:30:54;;;;;;;7.67;3.97;;;;;;;4.83;99.40;96821.06;5039121;28;20232;-70
2023/02/01 11:33:27;;;;;;;6.87;2.07;;;;;;;5.01;99.03;96822.13;5038687;28;20215;-70
2023/02/01 11:35:54;;;;;;;5.30;2.70;;;;;;;4.84;99.05;96823.53;5037756;28;20673;-69
2023/02/01 11:38:27;;;;;;;6.70;3.00;;;;;;;5.01;98.61;96819.50;5037931;28;20238;-70
2023/02/01 11:40:53;;;;;;;3.63;2.07;;;;;;;4.93;98.10;96812.31;5039057;28;20578;-70
2023/02/01 11:43:24;;;;;;;11.23;3.93;;;;;;;5.14;97.18;96809.66;5038484;28;20217;-70
2023/02/01 11:45:57;;;;;;;5.87;2.67;;;;;;;5.08;97.26;96800.59;5038047;28;20220;-69
2023/02/01 11:48:27;;;;;;;2.30;1.43;;;;;;;5.02;96.93;96801.09;5038663;28;20229;-70
2023/02/01 11:51:05;;;;;;;4.80;1.30;;;;;;;5.01;96.25;96781.16;5037987;28;20228;-71
2023/02/01 11:53:50;;;;;;;3.50;2.20;;;;;;;5.11;96.26;96779.41;5038117;28;20538;-70
2023/02/01 11:56:25;;;;;;;6.80;2.57;;;;;;;5.25;95.43;96788.69;5038450;28;20216;-70
2023/02/01 11:59:05;;;;;;;8.77;3.10;;;;;;;5.25;95.39;96788.69;5037554;28;20742;-70
2023/02/01 12:01:44;;;;;;;9.57;2.07;;;;;;;5.15;95.89;96791.25;5038727;28;20212;-71
2023/02/01 12:04:30;;;;;;;5.83;2.13;;;;;;;5.30;95.00;96781.28;5036318;28;20208;-69
2023/02/01 12:07:05;;;;;;;9.97;4.60;;;;;;;5.29;95.85;96798.75;5036184;28;20211;-70